| DS18B20 | SHTC3 | PZEM-004T | WiFi | ||||||||
|---|---|---|---|---|---|---|---|---|---|---|---|
| ID | Date d/m/Y & Time | data1 สูง | data2 ต่ำ | data3 นอก | temp pcb | hum pcb | Volt | Amp | Watt | rssi | Time |
| 15496 | 24/08/2026 07:07:54 | 29.1  | 29.1  | 26.9  | 30.0  | 67.1  | 230.7  | 0.04  | 4.5  | -76  | 07:07 |
| 15495 | 24/08/2026 07:03:10 | 29.0  | 29.1  | 26.7  | 30.0  | 67.2  | 229.8  | 0.04  | 4.5  | -77  | 07:03 |
| 15494 | 24/08/2026 06:58:27 | 29.1  | 29.2  | 26.6  | 30.0  | 67.2  | 229.8  | 0.04  | 4.5  | -77  | 06:58 |
| 15493 | 24/08/2026 06:53:44 | 29.1  | 29.2  | 26.4  | 30.0  | 67.1  | 230.6  | 0.04  | 4.5  | -76  | 06:53 |
| 15492 | 24/08/2026 06:49:01 | 29.1  | 29.2  | 26.4  | 30.1  | 67.1  | 229.5  | 0.04  | 4.5  | -77  | 06:49 |
| 15491 | 24/08/2026 06:44:16 | 29.1  | 29.2  | 26.3  | 30.1  | 67.2  | 231.3  | 0.04  | 4.5  | -76  | 06:44 |
| 15490 | 24/08/2026 06:39:33 | 29.1  | 29.2  | 26.3  | 30.0  | 67.2  | 229.4  | 0.04  | 4.5  | -78  | 06:39 |
| 15489 | 24/08/2026 06:34:50 | 29.1  | 29.2  | 26.4  | 30.0  | 67.2  | 228.6  | 0.04  | 4.5  | -77  | 06:34 |
| 15488 | 24/08/2026 06:30:05 | 29.1  | 29.2  | 26.7  | 30.0  | 67.3  | 226.7  | 0.04  | 4.5  | -77  | 06:30 |
| 15487 | 24/08/2026 06:25:22 | 29.1  | 29.3  | 26.5  | 30.0  | 67.3  | 227.2  | 0.04  | 4.5  | -79  | 06:25 |
| 15486 | 24/08/2026 06:20:38 | 29.1  | 29.3  | 26.3  | 30.0  | 67.4  | 222.9  | 0.04  | 4.5  | -80  | 06:20 |
| 15485 | 24/08/2026 06:15:55 | 29.2  | 29.3  | 26.5  | 30.1  | 67.3  | 227.6  | 0.04  | 4.5  | -78  | 06:15 |
| 15484 | 24/08/2026 06:11:10 | 29.2  | 29.3  | 26.4  | 30.1  | 67.2  | 227.9  | 0.04  | 4.5  | -78  | 06:11 |
| 15483 | 24/08/2026 06:06:27 | 29.2  | 29.4  | 26.4  | 30.0  | 67.3  | 226.5  | 0.04  | 4.5  | -76  | 06:06 |
| 15482 | 24/08/2026 06:01:44 | 29.2  | 29.4  | 26.5  | 30.2  | 67.3  | 229.2  | 0.04  | 4.5  | -77  | 06:01 |
| 15481 | 24/08/2026 05:57:00 | 29.2  | 29.4  | 26.4  | 30.1  | 67.2  | 226.4  | 0.04  | 4.5  | -77  | 05:57 |
| 15480 | 24/08/2026 05:52:17 | 29.2  | 29.4  | 26.7  | 30.1  | 67.2  | 228.6  | 0.04  | 4.5  | -76  | 05:52 |
| 15479 | 24/08/2026 05:47:33 | 29.2  | 29.4  | 26.9  | 30.3  | 67.2  | 229.5  | 0.04  | 4.5  | -77  | 05:47 |
| 15478 | 24/08/2026 05:42:50 | 29.3  | 29.4  | 26.9  | 30.1  | 67.3  | 227.3  | 0.04  | 4.5  | -77  | 05:42 |
| 15477 | 24/08/2026 05:38:07 | 29.3  | 29.4  | 26.9  | 30.1  | 67.2  | 230.3  | 0.04  | 4.5  | -77  | 05:38 |
| 15476 | 24/08/2026 05:33:21 | 29.3  | 29.5  | 26.9  | 30.1  | 67.2  | 229.7  | 0.04  | 4.5  | -77  | 05:33 |
| 15475 | 24/08/2026 05:28:37 | 29.3  | 29.5  | 27.0  | 30.1  | 67.2  | 227.8  | 0.04  | 4.5  | -78  | 05:28 |
| 15474 | 24/08/2026 05:23:54 | 29.4  | 29.5  | 26.9  | 30.2  | 67.1  | 231.1  | 0.04  | 4.5  | -79  | 05:23 |
| 15473 | 24/08/2026 05:19:09 | 29.4  | 29.6  | 26.9  | 30.3  | 67.2  | 229.3  | 0.04  | 4.5  | -73  | 05:19 |